createdAt,value
2022-09-17T00:00:00.280Z,83.9
2022-09-17T00:05:00.490Z,83.9
2022-09-17T00:10:00.263Z,84.2
2022-09-17T00:15:01.406Z,84.5
2022-09-17T00:20:00.291Z,84.5
2022-09-17T00:25:01.005Z,84.1
2022-09-17T00:30:00.278Z,84.1
2022-09-17T00:35:00.652Z,84.4
2022-09-17T00:40:00.407Z,84.1
2022-09-17T00:45:00.295Z,83.8
2022-09-17T00:50:00.318Z,83.8
2022-09-17T00:55:00.324Z,84.1
2022-09-17T01:00:00.323Z,83.2
2022-09-17T01:05:00.551Z,83.5
2022-09-17T01:10:00.325Z,83.8
2022-09-17T01:15:00.318Z,83.8
2022-09-17T01:20:00.320Z,82.3
2022-09-17T01:25:00.341Z,81.9
2022-09-17T01:30:00.332Z,82.6
2022-09-17T01:35:00.345Z,83.2
2022-09-17T01:40:00.488Z,83.2
2022-09-17T01:45:00.355Z,83.2
2022-09-17T01:50:00.372Z,83.2
2022-09-17T01:55:00.379Z,82.8
2022-09-17T02:00:00.438Z,83.5
2022-09-17T02:05:00.788Z,81.9
2022-09-17T02:10:00.771Z,82.5
2022-09-17T02:15:00.767Z,83.1
2022-09-17T02:20:00.781Z,82.8
2022-09-17T02:25:00.778Z,83.1
2022-09-17T02:30:00.789Z,83.4
2022-09-17T02:35:00.795Z,84
2022-09-17T02:40:00.862Z,83.7
2022-09-17T02:45:00.790Z,84.4
2022-09-17T02:50:00.815Z,84.3
2022-09-17T02:55:00.820Z,85.3
2022-09-17T03:00:00.863Z,84.9
2022-09-17T03:05:00.833Z,84.6
2022-09-17T03:10:00.837Z,84.3
2022-09-17T03:15:00.833Z,84
2022-09-17T03:20:00.853Z,83.7
2022-09-17T03:25:00.842Z,83.1
2022-09-17T03:30:00.857Z,83.4
2022-09-17T03:35:00.850Z,83.7
2022-09-17T03:40:00.954Z,83.1
2022-09-17T03:45:00.864Z,83.7
2022-09-17T03:50:00.188Z,83.1
2022-09-17T03:55:00.206Z,83.7
2022-09-17T04:00:00.198Z,83.1
2022-09-17T04:05:00.209Z,83.7
2022-09-17T04:10:00.202Z,83.7
2022-09-17T04:15:00.221Z,84.1
2022-09-17T04:20:00.201Z,83.7
2022-09-17T04:25:00.356Z,83.7
2022-09-17T04:30:00.283Z,85
2022-09-17T04:35:00.272Z,84
2022-09-17T04:40:02.083Z,84.3
2022-09-17T04:45:00.223Z,84.9
2022-09-17T04:50:00.248Z,84.9
2022-09-17T04:55:00.250Z,84.9
2022-09-17T05:00:00.277Z,84.3
2022-09-17T05:05:00.256Z,84.3
2022-09-17T05:10:00.276Z,84.6
2022-09-17T05:15:00.259Z,84.9
2022-09-17T05:20:00.836Z,85.6
2022-09-17T05:25:00.357Z,85.2
2022-09-17T05:30:00.292Z,85.2
2022-09-17T05:35:04.800Z,86.2
2022-09-17T05:40:00.410Z,85.9
2022-09-17T05:45:00.328Z,85.9
2022-09-17T05:50:00.329Z,86.2
2022-09-17T05:55:00.315Z,86.9
2022-09-17T06:00:00.326Z,86.2
2022-09-17T06:05:00.477Z,85.6
2022-09-17T06:10:00.322Z,84.1
2022-09-17T06:15:00.348Z,84.4
2022-09-17T06:20:00.322Z,84.4
2022-09-17T06:25:00.336Z,82.6
2022-09-17T06:30:00.352Z,83.5
2022-09-17T06:35:00.365Z,83.4
2022-09-17T06:40:00.487Z,83.3
2022-09-17T06:45:04.100Z,80.7
2022-09-17T06:50:00.582Z,80.4
2022-09-17T06:55:00.361Z,80.7
2022-09-17T07:00:00.373Z,81.4
2022-09-17T07:05:00.377Z,81.1
2022-09-17T07:10:00.397Z,81.4
2022-09-17T07:15:00.376Z,80.8
2022-09-17T07:20:00.397Z,80.7
2022-09-17T07:25:00.397Z,79
2022-09-17T07:30:00.436Z,78.2
2022-09-17T07:35:00.418Z,76.5
2022-09-17T07:40:00.499Z,76.5
2022-09-17T07:45:02.283Z,73.4
2022-09-17T07:50:00.417Z,74.4
2022-09-17T07:55:00.432Z,70.2
2022-09-17T08:00:00.717Z,71.6
2022-09-17T08:05:00.444Z,71
2022-09-17T08:10:00.441Z,72.2
2022-09-17T08:15:00.447Z,71
2022-09-17T08:20:00.449Z,69.7
2022-09-17T08:25:00.439Z,70.2
2022-09-17T08:30:00.450Z,70.6
2022-09-17T08:35:00.468Z,71.6
2022-09-17T08:40:00.605Z,72.5
2022-09-17T08:45:00.963Z,71.6
2022-09-17T08:50:00.479Z,68.9
2022-09-17T08:55:00.471Z,67.8
2022-09-17T09:00:00.491Z,67.9
2022-09-17T09:05:00.478Z,68.5
2022-09-17T09:10:00.486Z,66.5
2022-09-17T09:15:00.560Z,67.3
2022-09-17T09:20:00.492Z,65.3
2022-09-17T09:25:00.497Z,66.3
2022-09-17T09:30:00.523Z,68.5
2022-09-17T09:35:00.501Z,67.1
2022-09-17T09:40:00.578Z,67.6
2022-09-17T09:45:04.789Z,66.5
2022-09-17T09:50:00.407Z,66
2022-09-17T09:55:00.272Z,66.6
2022-09-17T10:00:00.147Z,65.5
2022-09-17T10:05:00.143Z,63.9
2022-09-17T10:10:00.130Z,65.1
2022-09-17T10:15:00.127Z,66.7
2022-09-17T10:20:00.202Z,69.8
2022-09-17T10:25:00.159Z,71
2022-09-17T10:30:00.139Z,72.9
2022-09-17T10:35:00.434Z,73.6
2022-09-17T10:40:00.268Z,73
2022-09-17T10:45:00.159Z,71
2022-09-17T10:50:00.200Z,69.2
2022-09-17T10:55:00.186Z,68.4
2022-09-17T11:00:00.172Z,68.6
2022-09-17T11:05:00.198Z,68.6
2022-09-17T11:10:00.225Z,71.1
2022-09-17T11:15:00.187Z,68.4
2022-09-17T11:20:00.405Z,65.5
2022-09-17T11:25:00.324Z,67.7
2022-09-17T11:30:00.255Z,66.1
2022-09-17T11:35:00.377Z,66.6
2022-09-17T11:40:00.368Z,66.2
2022-09-17T11:45:00.278Z,64.3
2022-09-17T11:50:00.376Z,61.9
2022-09-17T11:55:00.308Z,60.6
2022-09-17T12:00:00.366Z,59.5
2022-09-17T12:05:00.465Z,60
2022-09-17T12:10:00.263Z,57.7
2022-09-17T12:15:00.252Z,58
2022-09-17T12:20:00.278Z,59.2
2022-09-17T12:25:00.262Z,55.7
2022-09-17T12:30:00.733Z,56.7
2022-09-17T12:35:00.283Z,61.1
2022-09-17T12:40:00.364Z,65.8
2022-09-17T12:45:00.289Z,65.5
2022-09-17T12:50:00.307Z,66.1
2022-09-17T12:55:00.280Z,64.9
2022-09-17T13:00:05.255Z,62
2022-09-17T13:05:01.769Z,62.9
2022-09-17T13:10:00.312Z,62.1
2022-09-17T13:15:00.300Z,60.2
2022-09-17T13:20:00.320Z,59.1
2022-09-17T13:25:00.320Z,59.8
2022-09-17T13:30:00.321Z,61.7
2022-09-17T13:35:01.245Z,62.2
2022-09-17T13:40:00.380Z,61.9
2022-09-17T13:45:00.341Z,61.7
2022-09-17T13:50:00.343Z,60.8
2022-09-17T13:55:00.391Z,61.7
2022-09-17T14:00:00.353Z,58.5
2022-09-17T14:05:00.393Z,58.7
2022-09-17T14:10:00.375Z,56.8
2022-09-17T14:15:00.385Z,56.8
2022-09-17T14:20:00.389Z,55.5
2022-09-17T14:25:00.387Z,55.5
2022-09-17T14:30:00.375Z,56.1
2022-09-17T14:35:00.384Z,57.4
2022-09-17T14:40:00.434Z,56.8
2022-09-17T14:45:00.390Z,55.8
2022-09-17T14:50:00.436Z,58
2022-09-17T14:55:00.422Z,56.1
2022-09-17T15:00:00.449Z,55.5
2022-09-17T15:05:00.423Z,56.1
2022-09-17T15:10:00.418Z,57.3
2022-09-17T15:15:00.419Z,56.7
2022-09-17T15:20:00.424Z,57.3
2022-09-17T15:25:00.423Z,58.5
2022-09-17T15:30:00.434Z,59.2
2022-09-17T15:35:00.438Z,59.2
2022-09-17T15:40:00.516Z,56
2022-09-17T15:45:00.464Z,57.9
2022-09-17T15:50:00.329Z,57.9
2022-09-17T15:55:00.206Z,57.2
2022-09-17T16:00:00.138Z,57.4
2022-09-17T16:05:00.132Z,56.4
2022-09-17T16:10:00.152Z,57
2022-09-17T16:15:00.137Z,58
2022-09-17T16:20:03.895Z,59
2022-09-17T16:25:00.181Z,60.4
2022-09-17T16:30:00.175Z,61.2
2022-09-17T16:35:00.175Z,62.9
2022-09-17T16:40:00.305Z,63.5
2022-09-17T16:45:00.195Z,63.2
2022-09-17T16:50:00.297Z,62.2
2022-09-17T16:55:00.191Z,62.9
2022-09-17T17:00:00.336Z,62.8
2022-09-17T17:05:00.315Z,64.7
2022-09-17T17:10:00.324Z,67.8
2022-09-17T17:15:00.417Z,69.7
2022-09-17T17:20:00.235Z,70.3
2022-09-17T17:25:00.278Z,72.2
2022-09-17T17:30:00.233Z,72.8
2022-09-17T17:35:00.336Z,73.7
2022-09-17T17:40:01.054Z,74.3
2022-09-17T17:45:00.338Z,74.6
2022-09-17T17:50:00.300Z,75.3
2022-09-17T17:55:00.293Z,76.5
2022-09-17T18:00:00.305Z,77.8
2022-09-17T18:05:04.135Z,78.3
2022-09-17T18:10:00.394Z,78.4
2022-09-17T18:15:00.254Z,79
2022-09-17T18:20:00.282Z,78.4
2022-09-17T18:25:00.263Z,79.6
2022-09-17T18:30:00.286Z,79
2022-09-17T18:35:00.275Z,78.9
2022-09-17T18:40:00.296Z,78.3
2022-09-17T18:45:00.310Z,77
2022-09-17T18:50:00.288Z,77.9
2022-09-17T18:55:00.301Z,78.9
2022-09-17T19:00:00.314Z,78.3
2022-09-17T19:05:00.316Z,78.9
2022-09-17T19:10:00.610Z,79.2
2022-09-17T19:15:00.379Z,79.5
2022-09-17T19:20:00.487Z,80.7
2022-09-17T19:25:00.715Z,80.1
2022-09-17T19:30:00.352Z,80.7
2022-09-17T19:35:00.737Z,81.3
2022-09-17T19:40:00.398Z,81.3
2022-09-17T19:45:01.121Z,81.3
2022-09-17T19:50:00.353Z,81.6
2022-09-17T19:55:00.376Z,82
2022-09-17T20:00:00.374Z,81.3
2022-09-17T20:05:00.373Z,81.6
2022-09-17T20:10:00.365Z,81.6
2022-09-17T20:15:00.372Z,82
2022-09-17T20:20:00.370Z,82
2022-09-17T20:25:00.381Z,82.3
2022-09-17T20:30:00.396Z,82.3
2022-09-17T20:35:00.871Z,82
2022-09-17T20:40:00.700Z,82.9
2022-09-17T20:45:00.423Z,82.6
2022-09-17T20:50:00.460Z,82
2022-09-17T20:55:00.408Z,82
2022-09-17T21:00:00.420Z,82.6
2022-09-17T21:05:00.429Z,82.3
2022-09-17T21:10:00.447Z,82
2022-09-17T21:15:00.422Z,82.3
2022-09-17T21:20:00.442Z,82
2022-09-17T21:25:00.443Z,81.3
2022-09-17T21:30:00.441Z,81.3
2022-09-17T21:35:00.457Z,81.6
2022-09-17T21:40:00.567Z,82.3
2022-09-17T21:45:00.456Z,82
2022-09-17T21:50:00.485Z,81.3
2022-09-17T21:55:00.202Z,81.3
2022-09-17T22:00:00.137Z,81.3
2022-09-17T22:05:00.140Z,81
2022-09-17T22:10:00.171Z,80.7
2022-09-17T22:15:00.145Z,80.4
2022-09-17T22:20:00.194Z,81.6
2022-09-17T22:25:00.147Z,82.6
2022-09-17T22:30:00.177Z,82.2
2022-09-17T22:35:00.186Z,82.2
2022-09-17T22:40:00.240Z,83.2
2022-09-17T22:45:00.242Z,82.2
2022-09-17T22:50:00.222Z,81.3
2022-09-17T22:55:00.188Z,82.2
2022-09-17T23:00:00.204Z,81.3
2022-09-17T23:05:00.191Z,81.9
2022-09-17T23:10:00.218Z,81.3
2022-09-17T23:15:00.208Z,81.9
2022-09-17T23:20:00.211Z,82.2
2022-09-17T23:25:00.174Z,82.3
2022-09-17T23:30:00.245Z,81.6
2022-09-17T23:35:00.310Z,82.3
2022-09-17T23:40:00.338Z,82.9
2022-09-17T23:45:00.250Z,83.5
2022-09-17T23:50:00.374Z,83.8
2022-09-17T23:55:00.329Z,83.8
